createdAt,value
2018-12-01T00:00:44.881Z,27.15
2018-12-01T00:02:47.136Z,29.48
2018-12-01T00:04:49.324Z,30.95
2018-12-01T00:06:51.495Z,30.35
2018-12-01T00:08:53.914Z,28.20
2018-12-01T00:10:56.111Z,26.55
2018-12-01T00:12:58.309Z,24.72
2018-12-01T00:15:00.524Z,24.47
2018-12-01T00:17:02.759Z,25.95
2018-12-01T00:19:05.275Z,27.27
2018-12-01T00:21:07.451Z,23.87
2018-12-01T00:23:09.663Z,25.88
2018-12-01T00:25:12.070Z,27.58
2018-12-01T00:27:14.281Z,31.45
2018-12-01T00:29:16.475Z,30.82
2018-12-01T00:31:18.690Z,27.62
2018-12-01T00:33:21.160Z,29.35
2018-12-01T00:35:23.368Z,24.90
2018-12-01T00:37:25.552Z,27.65
2018-12-01T00:39:28.024Z,27.93
2018-12-01T00:41:30.214Z,27.00
2018-12-01T00:43:32.408Z,32.80
2018-12-01T00:45:34.833Z,25.68
2018-12-01T00:47:37.041Z,29.63
2018-12-01T00:49:39.244Z,29.87
2018-12-01T00:51:41.492Z,27.17
2018-12-01T00:53:43.665Z,26.52
2018-12-01T00:55:45.848Z,31.05
2018-12-01T00:57:48.547Z,26.05
2018-12-01T00:59:50.755Z,31.68
2018-12-01T01:01:52.993Z,27.87
2018-12-01T01:03:55.424Z,24.87
2018-12-01T01:05:57.603Z,29.15
2018-12-01T01:08:00.055Z,31.95
2018-12-01T01:10:02.603Z,29.27
2018-12-01T01:12:04.957Z,27.48
2018-12-01T01:14:07.164Z,28.67
2018-12-01T01:16:09.428Z,24.45
2018-12-01T01:18:11.643Z,35.43
2018-12-01T01:20:15.414Z,30.35
2018-12-01T01:22:17.780Z,28.23
2018-12-01T01:24:19.984Z,29.48
2018-12-01T01:26:22.200Z,28.25
2018-12-01T01:28:25.420Z,32.28
2018-12-01T01:30:27.624Z,29.52
2018-12-01T01:32:29.820Z,30.95
2018-12-01T01:34:32.135Z,32.23
2018-12-01T01:36:34.367Z,29.25
2018-12-01T01:38:36.565Z,27.58
2018-12-01T01:40:39.008Z,30.95
2018-12-01T01:42:41.268Z,26.93
2018-12-01T01:44:43.484Z,32.98
2018-12-01T01:46:45.945Z,34.40
2018-12-01T01:48:48.171Z,34.00
2018-12-01T01:50:50.411Z,32.58
2018-12-01T01:52:52.771Z,31.65
2018-12-01T01:54:54.976Z,34.75
2018-12-01T01:56:57.161Z,28.17
2018-12-01T01:58:59.348Z,32.67
2018-12-01T02:01:01.542Z,31.05
2018-12-01T02:03:03.864Z,34.55
2018-12-01T02:05:06.120Z,33.42
2018-12-01T02:07:08.345Z,34.10
2018-12-01T02:09:10.599Z,32.85
2018-12-01T02:11:12.829Z,35.38
2018-12-01T02:13:15.043Z,27.32
2018-12-01T02:15:17.259Z,32.83
2018-12-01T02:17:19.504Z,31.15
2018-12-01T02:19:21.751Z,31.87
2018-12-01T02:21:25.020Z,29.80
2018-12-01T02:23:27.285Z,32.48
2018-12-01T02:25:29.517Z,37.03
2018-12-01T02:27:31.716Z,39.95
2018-12-01T02:29:34.066Z,34.88
2018-12-01T02:31:36.281Z,35.65
2018-12-01T02:33:38.460Z,34.60
2018-12-01T02:35:40.794Z,34.53
2018-12-01T02:37:42.980Z,39.13
2018-12-01T02:39:45.227Z,31.62
2018-12-01T02:41:47.634Z,36.90
2018-12-01T02:43:55.566Z,39.00
2018-12-01T02:46:03.427Z,34.78
2018-12-01T02:48:05.831Z,40.28
2018-12-01T02:50:14.746Z,33.35
2018-12-01T02:52:16.964Z,34.18
2018-12-01T02:54:19.230Z,37.70
2018-12-01T02:56:21.435Z,39.33
2018-12-01T02:58:23.663Z,39.92
2018-12-01T03:00:25.940Z,39.63
2018-12-01T03:02:28.169Z,41.65
2018-12-01T03:04:30.420Z,41.58
2018-12-01T03:06:32.881Z,45.65
2018-12-01T03:08:35.148Z,45.67
2018-12-01T03:10:37.367Z,38.65
2018-12-01T03:12:40.528Z,46.53
2018-12-01T03:14:42.747Z,42.35
2018-12-01T03:16:44.957Z,36.25
2018-12-01T03:18:47.152Z,36.98
2018-12-01T03:20:49.347Z,41.85
2018-12-01T03:22:51.592Z,39.38
2018-12-01T03:24:53.813Z,43.55
2018-12-01T03:26:55.987Z,44.33
2018-12-01T03:28:58.188Z,51.35
2018-12-01T03:31:00.398Z,36.90
2018-12-01T03:33:02.629Z,47.20
2018-12-01T03:35:07.411Z,44.23
2018-12-01T03:37:09.830Z,46.90
2018-12-01T03:39:12.025Z,44.77
2018-12-01T03:41:14.255Z,39.35
2018-12-01T03:43:16.796Z,38.73
2018-12-01T03:45:19.466Z,40.70
2018-12-01T03:47:21.696Z,46.73
2018-12-01T03:49:23.986Z,48.08
2018-12-01T03:51:26.255Z,42.05
2018-12-01T03:53:28.551Z,41.70
2018-12-01T03:55:31.526Z,47.13
2018-12-01T03:57:33.765Z,44.03
2018-12-01T03:59:35.981Z,46.40
2018-12-01T04:01:38.335Z,38.38
2018-12-01T04:03:40.532Z,44.38
2018-12-01T04:05:42.719Z,41.05
2018-12-01T04:07:44.965Z,44.42
2018-12-01T04:09:47.164Z,43.08
2018-12-01T04:11:49.359Z,45.50
2018-12-01T04:13:51.888Z,43.87
2018-12-01T04:15:54.078Z,41.30
2018-12-01T04:17:56.269Z,45.20
2018-12-01T04:19:58.517Z,41.50
2018-12-01T04:22:00.909Z,39.75
2018-12-01T04:24:03.128Z,47.60
2018-12-01T04:26:05.383Z,40.48
2018-12-01T04:28:07.585Z,45.00
2018-12-01T04:30:10.532Z,42.17
2018-12-01T04:32:12.936Z,49.38
2018-12-01T04:34:15.127Z,44.93
2018-12-01T04:36:17.337Z,51.90
2018-12-01T04:40:40.473Z,44.58
2018-12-01T04:42:43.072Z,49.90
2018-12-01T04:44:45.272Z,54.65
2018-12-01T04:46:47.476Z,56.35
2018-12-01T04:48:49.680Z,62.65
2018-12-01T04:50:51.864Z,56.15
2018-12-01T04:52:54.045Z,50.95
2018-12-01T04:54:56.242Z,53.28
2018-12-01T04:56:58.437Z,56.25
2018-12-01T04:59:00.715Z,54.38
2018-12-01T05:01:02.940Z,53.70
2018-12-01T05:03:05.152Z,60.08
2018-12-01T05:05:08.371Z,63.13
2018-12-01T05:07:10.600Z,71.30
2018-12-01T05:09:12.765Z,52.95
2018-12-01T05:11:14.996Z,60.00
2018-12-01T05:13:17.184Z,67.47
2018-12-01T05:15:19.436Z,73.28
2018-12-01T05:17:21.688Z,63.33
2018-12-01T05:19:23.895Z,65.75
2018-12-01T05:21:26.084Z,69.58
2018-12-01T05:23:28.302Z,62.73
2018-12-01T05:25:30.508Z,59.45
2018-12-01T05:27:32.692Z,63.42
2018-12-01T05:29:34.872Z,69.45
2018-12-01T05:31:37.352Z,64.90
2018-12-01T05:33:39.548Z,72.92
2018-12-01T05:35:41.740Z,62.43
2018-12-01T05:37:43.952Z,66.55
2018-12-01T05:39:46.126Z,64.65
2018-12-01T05:41:48.317Z,69.55
2018-12-01T05:43:50.519Z,63.92
2018-12-01T05:45:52.717Z,63.73
2018-12-01T05:47:54.900Z,71.33
2018-12-01T05:49:57.064Z,71.05
2018-12-01T05:51:59.286Z,80.40
2018-12-01T05:54:01.593Z,68.07
2018-12-01T05:56:03.788Z,64.53
2018-12-01T05:58:06.006Z,62.98
2018-12-01T06:00:09.000Z,64.62
2018-12-01T06:02:11.214Z,66.10
2018-12-01T06:04:13.525Z,66.35
2018-12-01T06:06:16.205Z,70.92
2018-12-01T06:08:18.415Z,63.70
2018-12-01T06:10:21.092Z,63.68
2018-12-01T06:12:23.304Z,69.55
2018-12-01T06:14:25.577Z,58.83
2018-12-01T06:16:27.779Z,67.55
2018-12-01T06:18:29.975Z,62.10
2018-12-01T06:20:32.185Z,59.20
2018-12-01T06:22:34.588Z,65.97
2018-12-01T06:24:36.770Z,59.20
2018-12-01T06:26:38.960Z,60.95
2018-12-01T06:28:41.312Z,61.10
2018-12-01T06:30:43.472Z,72.75
2018-12-01T06:32:46.168Z,67.75
2018-12-01T06:34:48.510Z,65.08
2018-12-01T06:36:50.708Z,68.30
2018-12-01T06:38:52.993Z,60.33
2018-12-01T06:40:55.208Z,66.12
2018-12-01T06:42:57.416Z,61.77
2018-12-01T06:44:59.596Z,87.72
2018-12-01T06:47:01.796Z,63.58
2018-12-01T06:49:04.252Z,64.37
2018-12-01T06:51:06.434Z,54.30
2018-12-01T06:53:08.648Z,60.33
2018-12-01T06:55:11.285Z,66.35
2018-12-01T06:57:13.456Z,74.07
2018-12-01T06:59:15.779Z,66.55
2018-12-01T07:01:17.991Z,68.40
2018-12-01T07:03:20.392Z,56.68
2018-12-01T07:05:22.623Z,56.73
2018-12-01T07:07:24.809Z,71.33
2018-12-01T07:09:27.081Z,64.65
2018-12-01T07:11:29.469Z,77.15
2018-12-01T07:13:31.668Z,66.75
2018-12-01T07:15:34.681Z,69.20
2018-12-01T07:17:36.908Z,71.20
2018-12-01T07:19:40.137Z,65.40
2018-12-01T07:21:42.321Z,60.12
2018-12-01T07:23:44.518Z,60.52
2018-12-01T07:25:46.669Z,65.22
2018-12-01T07:27:48.856Z,67.75
2018-12-01T07:29:51.080Z,65.57
2018-12-01T07:31:53.536Z,57.83
2018-12-01T07:33:55.826Z,64.70
2018-12-01T07:35:58.027Z,76.30
2018-12-01T07:38:00.251Z,67.00
2018-12-01T07:40:03.009Z,61.13
2018-12-01T07:42:05.612Z,60.55
2018-12-01T07:44:07.820Z,67.00
2018-12-01T07:46:10.030Z,66.75
2018-12-01T07:48:12.230Z,52.58
2018-12-01T07:50:15.210Z,62.75
2018-12-01T07:52:17.384Z,66.15
2018-12-01T07:54:19.583Z,53.87
2018-12-01T07:56:21.799Z,58.17
2018-12-01T07:58:24.000Z,63.17
2018-12-01T08:00:26.188Z,46.65
2018-12-01T08:02:28.391Z,58.75
2018-12-01T08:04:30.583Z,56.85
2018-12-01T08:06:32.768Z,56.20
2018-12-01T08:08:34.965Z,46.28
2018-12-01T08:10:37.160Z,46.02
2018-12-01T08:12:39.361Z,50.45
2018-12-01T08:14:42.014Z,46.13
2018-12-01T08:16:44.213Z,55.85
2018-12-01T08:18:46.457Z,49.20
2018-12-01T08:20:48.676Z,50.17
2018-12-01T08:22:50.861Z,44.58
2018-12-01T08:24:53.044Z,44.48
2018-12-01T08:26:55.248Z,43.42
2018-12-01T08:28:57.416Z,40.48
2018-12-01T08:30:59.652Z,44.15
2018-12-01T08:33:01.882Z,41.95
2018-12-01T08:35:04.212Z,42.30
2018-12-01T08:37:06.393Z,39.38
2018-12-01T08:39:08.804Z,47.78
2018-12-01T08:41:11.015Z,43.58
2018-12-01T08:43:13.190Z,36.45
2018-12-01T08:45:15.404Z,34.05
2018-12-01T08:47:17.598Z,36.50
2018-12-01T08:49:19.788Z,38.92
2018-12-01T08:51:22.455Z,42.15
2018-12-01T08:53:24.688Z,42.33
2018-12-01T08:55:26.882Z,47.48
2018-12-01T08:57:29.160Z,41.40
2018-12-01T08:59:31.347Z,36.70
2018-12-01T09:01:33.560Z,41.83
2018-12-01T09:03:35.756Z,37.38
2018-12-01T09:05:38.747Z,36.73
2018-12-01T09:07:40.931Z,40.28
2018-12-01T09:09:43.120Z,29.70
2018-12-01T09:11:45.507Z,41.15
2018-12-01T09:13:47.720Z,41.70
2018-12-01T09:15:49.904Z,34.03
2018-12-01T09:17:52.427Z,43.78
2018-12-01T09:20:01.438Z,39.78
2018-12-01T09:22:03.672Z,38.48
2018-12-01T09:24:05.852Z,33.25
2018-12-01T09:26:08.059Z,39.53
2018-12-01T09:28:10.280Z,39.13
2018-12-01T09:30:20.837Z,35.75
2018-12-01T09:32:23.039Z,34.78
2018-12-01T09:34:25.451Z,32.80
2018-12-01T09:36:27.632Z,48.52
2018-12-01T09:38:29.953Z,38.00
2018-12-01T09:40:32.606Z,42.30
2018-12-01T09:42:34.784Z,37.20
2018-12-01T09:44:36.975Z,41.65
2018-12-01T09:46:39.316Z,37.83
2018-12-01T09:48:41.520Z,35.03
2018-12-01T09:50:43.712Z,36.55
2018-12-01T09:52:46.846Z,35.30
2018-12-01T09:54:49.013Z,37.40
2018-12-01T09:56:51.185Z,38.73
2018-12-01T09:58:53.465Z,45.12
2018-12-01T10:00:55.795Z,35.48
2018-12-01T10:02:58.459Z,38.45
2018-12-01T10:05:00.671Z,33.05
2018-12-01T10:07:03.150Z,34.85
2018-12-01T10:09:06.476Z,40.80
2018-12-01T10:11:08.812Z,35.95
2018-12-01T10:13:11.040Z,37.05
2018-12-01T10:15:13.856Z,33.78
2018-12-01T10:17:16.107Z,32.83
2018-12-01T10:19:18.452Z,32.73
2018-12-01T10:21:20.647Z,37.60
2018-12-01T10:23:22.851Z,33.10
2018-12-01T10:25:25.111Z,38.25
2018-12-01T10:27:27.330Z,35.52
2018-12-01T10:29:29.524Z,32.00
2018-12-01T10:31:31.771Z,32.53
2018-12-01T10:33:33.956Z,31.23
2018-12-01T10:35:36.373Z,31.90
2018-12-01T10:37:42.700Z,33.33
2018-12-01T10:39:44.911Z,34.58
2018-12-01T10:41:47.077Z,37.70
2018-12-01T10:43:49.462Z,33.13
2018-12-01T10:45:51.692Z,34.33
2018-12-01T10:47:53.923Z,36.98
2018-12-01T10:49:56.863Z,30.17
2018-12-01T10:51:59.051Z,33.83
2018-12-01T10:54:01.248Z,33.18
2018-12-01T10:56:03.500Z,32.53
2018-12-01T10:58:07.173Z,30.97
2018-12-01T11:00:14.908Z,29.50
2018-12-01T11:02:22.776Z,37.67
2018-12-01T11:04:30.738Z,27.57
2018-12-01T11:06:33.053Z,28.20
2018-12-01T11:08:35.895Z,33.70
2018-12-01T11:10:38.080Z,27.80
2018-12-01T11:12:40.247Z,32.33
2018-12-01T11:14:42.764Z,26.73
2018-12-01T11:16:45.060Z,28.60
2018-12-01T11:18:47.241Z,27.90
2018-12-01T11:20:49.460Z,28.47
2018-12-01T11:22:51.706Z,29.37
2018-12-01T11:24:53.908Z,25.07
2018-12-01T11:26:56.160Z,29.13
2018-12-01T11:28:58.355Z,32.20
2018-12-01T11:31:00.552Z,28.60
2018-12-01T11:33:02.789Z,34.03
2018-12-01T11:35:05.143Z,29.83
2018-12-01T11:37:07.365Z,30.00
2018-12-01T11:39:09.568Z,27.30
2018-12-01T11:41:11.796Z,30.03
2018-12-01T11:43:13.998Z,24.83
2018-12-01T11:45:16.659Z,32.87
2018-12-01T11:47:18.867Z,27.40
2018-12-01T11:49:21.139Z,24.10
2018-12-01T11:51:23.346Z,26.77
2018-12-01T11:53:25.571Z,25.70
2018-12-01T11:55:27.764Z,29.17
2018-12-01T11:57:29.975Z,22.77
2018-12-01T11:59:32.212Z,33.10
2018-12-01T12:01:34.435Z,27.73
2018-12-01T12:03:36.623Z,27.60
2018-12-01T12:05:38.817Z,27.60
2018-12-01T12:07:46.799Z,27.60
2018-12-01T12:09:49.065Z,34.70
2018-12-01T12:11:51.340Z,31.60
2018-12-01T12:13:53.541Z,33.70
2018-12-01T12:15:55.769Z,36.00
2018-12-01T12:18:00.345Z,27.63
2018-12-01T12:20:02.714Z,25.90
2018-12-01T12:22:05.008Z,29.93
2018-12-01T12:24:07.279Z,27.50
2018-12-01T12:26:09.470Z,35.07
2018-12-01T12:28:11.728Z,27.23
2018-12-01T12:30:14.456Z,33.73
2018-12-01T12:32:16.653Z,27.00
2018-12-01T12:34:18.841Z,29.10
2018-12-01T12:36:21.124Z,33.37
2018-12-01T12:38:23.365Z,31.83
2018-12-01T12:40:25.902Z,25.10
2018-12-01T12:42:28.091Z,34.07
2018-12-01T12:44:30.285Z,24.93
2018-12-01T12:46:32.480Z,33.40
2018-12-01T12:48:34.708Z,26.80
2018-12-01T12:50:37.011Z,26.17
2018-12-01T12:52:39.179Z,31.27
2018-12-01T12:54:41.488Z,22.83
2018-12-01T12:56:43.668Z,22.47
2018-12-01T12:58:45.840Z,26.50
2018-12-01T13:00:48.752Z,28.00
2018-12-01T13:02:52.578Z,26.33
2018-12-01T13:04:54.776Z,27.97
2018-12-01T13:06:57.009Z,25.70
2018-12-01T13:08:59.190Z,29.50
2018-12-01T13:11:01.336Z,33.93
2018-12-01T13:13:04.041Z,26.03
2018-12-01T13:15:07.183Z,30.27
2018-12-01T13:17:09.383Z,30.50
2018-12-01T13:19:11.533Z,30.50
2018-12-01T13:21:13.728Z,30.37
2018-12-01T13:23:16.256Z,26.43
2018-12-01T13:25:18.544Z,26.47
2018-12-01T13:27:20.731Z,23.93
2018-12-01T13:29:22.987Z,28.33
2018-12-01T13:31:25.244Z,28.27
2018-12-01T13:33:27.538Z,29.30
2018-12-01T13:35:29.781Z,25.23
2018-12-01T13:37:31.964Z,28.07
2018-12-01T13:39:34.112Z,26.60
2018-12-01T13:41:36.289Z,30.17
2018-12-01T13:43:38.509Z,26.87
2018-12-01T13:45:40.737Z,31.50
2018-12-01T13:47:43.079Z,32.60
2018-12-01T13:49:45.327Z,26.70
2018-12-01T13:51:47.496Z,32.30
2018-12-01T13:53:49.690Z,25.23
2018-12-01T13:55:52.158Z,29.80
2018-12-01T13:57:54.312Z,28.47
2018-12-01T13:59:56.477Z,26.47
2018-12-01T14:01:58.804Z,25.17
2018-12-01T14:04:00.975Z,25.93
2018-12-01T14:06:03.319Z,22.97
2018-12-01T14:08:05.527Z,28.83
2018-12-01T14:10:11.243Z,25.70
2018-12-01T14:12:13.391Z,25.90
2018-12-01T14:14:15.740Z,29.70
2018-12-01T14:16:18.287Z,24.97
2018-12-01T14:18:20.498Z,25.70
2018-12-01T14:20:22.665Z,29.67
2018-12-01T14:22:25.055Z,33.10
2018-12-01T14:24:27.284Z,23.97
2018-12-01T14:26:29.430Z,29.67
2018-12-01T14:28:31.614Z,24.07
2018-12-01T14:30:34.367Z,22.57
2018-12-01T14:32:36.572Z,25.90
2018-12-01T14:34:38.768Z,23.07
2018-12-01T14:36:40.959Z,22.30
2018-12-01T14:38:43.140Z,25.70
2018-12-01T14:40:47.895Z,23.63
2018-12-01T14:42:50.542Z,22.27
2018-12-01T14:44:53.016Z,20.40
2018-12-01T14:46:55.343Z,18.30
2018-12-01T14:48:57.499Z,18.63
2018-12-01T14:51:00.650Z,22.83
2018-12-01T14:53:02.841Z,19.47
2018-12-01T14:55:06.841Z,19.40
2018-12-01T14:57:09.056Z,19.27
2018-12-01T14:59:11.268Z,16.50
2018-12-01T15:01:13.518Z,21.13
2018-12-01T15:03:15.752Z,24.60
2018-12-01T15:05:17.988Z,19.27
2018-12-01T15:07:20.194Z,15.90
2018-12-01T15:09:22.401Z,20.63
2018-12-01T15:11:24.577Z,19.23
2018-12-01T15:13:26.756Z,20.27
2018-12-01T15:15:28.923Z,23.17
2018-12-01T15:17:31.119Z,23.50
2018-12-01T15:19:33.317Z,22.53
2018-12-01T15:21:35.650Z,19.27
2018-12-01T15:23:37.832Z,21.20
2018-12-01T15:25:40.033Z,15.90
2018-12-01T15:27:42.239Z,20.93
2018-12-01T15:29:44.403Z,21.00
2018-12-01T15:31:46.610Z,20.43
2018-12-01T15:33:48.888Z,15.90
2018-12-01T15:35:51.087Z,17.40
2018-12-01T15:37:53.268Z,16.40
2018-12-01T15:39:55.460Z,16.67
2018-12-01T15:41:57.655Z,18.23
2018-12-01T15:43:59.873Z,16.43
2018-12-01T15:46:02.227Z,17.00
2018-12-01T15:48:04.874Z,16.03
2018-12-01T15:50:08.986Z,17.90
2018-12-01T15:52:11.238Z,19.77
2018-12-01T15:54:13.424Z,19.10
2018-12-01T15:56:15.712Z,15.20
2018-12-01T15:58:17.875Z,19.97
2018-12-01T16:00:21.756Z,21.13
2018-12-01T16:02:23.944Z,16.83
2018-12-01T16:04:26.213Z,20.33
2018-12-01T16:06:29.371Z,16.70
2018-12-01T16:08:32.230Z,18.40
2018-12-01T16:10:34.407Z,24.73
2018-12-01T16:12:36.588Z,19.30
2018-12-01T16:14:38.812Z,20.43
2018-12-01T16:16:40.976Z,18.00
2018-12-01T16:18:44.260Z,17.70
2018-12-01T16:20:46.550Z,13.63
2018-12-01T16:22:49.602Z,21.47
2018-12-01T16:24:53.763Z,17.70
2018-12-01T16:26:57.035Z,18.90
2018-12-01T16:28:59.785Z,14.47
2018-12-01T16:31:02.971Z,16.60
2018-12-01T16:33:09.183Z,18.17
2018-12-01T16:35:12.208Z,22.67
2018-12-01T16:38:19.723Z,21.27
2018-12-01T16:40:45.654Z,17.00
2018-12-01T16:42:55.046Z,20.73
2018-12-01T16:44:58.540Z,15.83
2018-12-01T16:47:00.944Z,16.80
2018-12-01T16:49:03.420Z,14.43
2018-12-01T16:51:06.579Z,14.57
2018-12-01T16:53:09.703Z,19.77
2018-12-01T16:55:16.637Z,16.07
2018-12-01T16:57:20.047Z,19.60
2018-12-01T16:59:22.501Z,12.43
2018-12-01T17:03:34.053Z,16.77
2018-12-01T17:05:37.676Z,15.70
2018-12-01T17:07:42.364Z,15.77
2018-12-01T17:09:45.730Z,16.87
2018-12-01T17:11:48.091Z,16.20
2018-12-01T17:13:50.451Z,12.40
2018-12-01T17:18:02.351Z,15.17
2018-12-01T17:20:06.029Z,14.97
2018-12-01T17:24:17.723Z,14.07
2018-12-01T17:26:20.729Z,18.40
2018-12-01T17:28:23.074Z,19.40
2018-12-01T17:30:26.507Z,17.73
2018-12-01T17:32:35.815Z,21.00
2018-12-01T17:34:38.278Z,11.30
2018-12-01T17:36:40.667Z,14.07
2018-12-01T17:38:42.944Z,17.07
2018-12-01T17:40:46.476Z,15.30
2018-12-01T17:42:51.143Z,14.53
2018-12-01T17:44:54.579Z,12.07
2018-12-01T17:46:56.888Z,18.90
2018-12-01T17:49:00.008Z,12.43
2018-12-01T17:51:02.380Z,12.93
2018-12-01T17:53:10.180Z,9.73
2018-12-01T17:55:14.512Z,14.00
2018-12-01T17:57:18.549Z,15.80
2018-12-01T17:59:21.575Z,17.07
2018-12-01T18:01:24.288Z,14.77
2018-12-01T18:03:26.832Z,12.03
2018-12-01T18:05:33.017Z,16.37
2018-12-01T18:07:35.369Z,15.53
2018-12-01T18:09:37.767Z,13.20
2018-12-01T18:11:40.004Z,11.97
2018-12-01T18:13:42.325Z,17.20
2018-12-01T18:15:44.583Z,18.95
2018-12-01T18:17:47.059Z,13.70
2018-12-01T18:19:53.811Z,11.60
2018-12-01T18:21:56.150Z,15.43
2018-12-01T18:23:59.169Z,11.20
2018-12-01T18:26:01.536Z,10.03
2018-12-01T18:28:04.648Z,16.83
2018-12-01T18:30:08.918Z,24.87
2018-12-01T18:32:11.227Z,14.33
2018-12-01T18:34:14.028Z,15.00
2018-12-01T18:36:16.220Z,17.97
2018-12-01T18:38:18.641Z,13.20
2018-12-01T18:40:21.194Z,12.60
2018-12-01T18:42:23.446Z,11.97
2018-12-01T18:44:26.259Z,11.93
2018-12-01T18:46:28.454Z,14.40
2018-12-01T18:48:30.713Z,15.33
2018-12-01T18:50:33.372Z,10.47
2018-12-01T18:52:35.593Z,12.30
2018-12-01T18:54:37.804Z,13.30
2018-12-01T18:56:40.425Z,14.07
2018-12-01T18:58:42.619Z,11.43
2018-12-01T19:00:46.529Z,15.90
2018-12-01T19:02:49.126Z,13.13
2018-12-01T19:04:51.396Z,11.80
2018-12-01T19:06:53.592Z,11.67
2018-12-01T19:08:55.771Z,14.47
2018-12-01T19:10:57.940Z,18.13
2018-12-01T19:13:00.107Z,12.60
2018-12-01T19:15:02.373Z,14.30
2018-12-01T19:17:05.252Z,16.20
2018-12-01T19:19:07.417Z,13.60
2018-12-01T19:21:09.668Z,10.07
2018-12-01T19:23:12.567Z,11.30
2018-12-01T19:25:15.327Z,17.97
2018-12-01T19:27:17.571Z,12.63
2018-12-01T19:29:19.728Z,13.37
2018-12-01T19:31:21.860Z,14.80
2018-12-01T19:33:24.043Z,13.17
2018-12-01T19:35:26.279Z,12.93
2018-12-01T19:37:28.435Z,10.23
2018-12-01T19:39:30.680Z,8.83
2018-12-01T19:41:32.839Z,13.25
2018-12-01T19:43:35.055Z,13.33
2018-12-01T19:45:37.262Z,10.38
2018-12-01T19:47:39.432Z,12.23
2018-12-01T19:49:41.605Z,11.87
2018-12-01T19:51:43.791Z,9.30
2018-12-01T19:53:45.976Z,11.87
2018-12-01T19:55:49.041Z,9.07
2018-12-01T19:57:51.287Z,11.43
2018-12-01T19:59:53.481Z,11.07
2018-12-01T20:01:55.674Z,13.10
2018-12-01T20:03:57.875Z,12.30
2018-12-01T20:06:00.052Z,10.80
2018-12-01T20:08:02.264Z,9.37
2018-12-01T20:10:07.541Z,13.57
2018-12-01T20:12:09.732Z,11.13
2018-12-01T20:14:13.416Z,11.03
2018-12-01T20:16:16.882Z,13.08
2018-12-01T20:18:19.911Z,13.60
2018-12-01T20:20:22.111Z,15.30
2018-12-01T20:22:24.359Z,11.20
2018-12-01T20:24:26.515Z,12.85
2018-12-01T20:26:28.720Z,12.82
2018-12-01T20:28:30.868Z,12.00
2018-12-01T20:30:33.056Z,12.70
2018-12-01T20:32:35.263Z,10.07
2018-12-01T20:34:37.435Z,11.38
2018-12-01T20:36:41.712Z,12.63
2018-12-01T20:38:45.343Z,12.47
2018-12-01T20:40:47.551Z,14.60
2018-12-01T20:42:49.718Z,15.93
2018-12-01T20:44:51.877Z,13.87
2018-12-01T20:46:54.095Z,11.83
2018-12-01T20:48:56.267Z,11.65
2018-12-01T20:50:58.479Z,9.80
2018-12-01T20:53:00.697Z,15.63
2018-12-01T20:55:03.975Z,15.40
2018-12-01T20:57:10.189Z,13.35
2018-12-01T20:59:13.154Z,14.35
2018-12-01T21:01:15.428Z,12.87
2018-12-01T21:03:17.594Z,11.13
2018-12-01T21:05:20.502Z,17.17
2018-12-01T21:07:22.665Z,12.97
2018-12-01T21:09:24.852Z,7.77
2018-12-01T21:11:27.065Z,15.23
2018-12-01T21:13:29.281Z,14.40
2018-12-01T21:15:31.449Z,11.03
2018-12-01T21:17:33.623Z,10.73
2018-12-01T21:19:35.815Z,8.03
2018-12-01T21:21:37.983Z,10.60
2018-12-01T21:23:43.140Z,12.63
2018-12-01T21:25:45.441Z,8.33
2018-12-01T21:27:47.632Z,11.88
2018-12-01T21:29:49.834Z,9.80
2018-12-01T21:31:52.352Z,9.75
2018-12-01T21:33:54.521Z,16.17
2018-12-01T21:35:56.744Z,15.07
2018-12-01T21:37:58.951Z,10.30
2018-12-01T21:40:01.138Z,18.32
2018-12-01T21:42:03.309Z,13.53
2018-12-01T22:45:18.216Z,13.00
2018-12-01T22:47:21.370Z,11.73
2018-12-01T22:49:23.710Z,13.55
2018-12-01T22:51:25.980Z,10.70
2018-12-01T22:53:28.573Z,12.80
2018-12-01T22:55:31.601Z,12.03
2018-12-01T22:57:33.941Z,12.15
2018-12-01T22:59:36.444Z,13.83
2018-12-01T23:01:39.050Z,17.07
2018-12-01T23:03:41.352Z,19.07
2018-12-01T23:05:43.672Z,16.52
2018-12-01T23:07:45.939Z,13.58
2018-12-01T23:09:48.200Z,15.30
2018-12-01T23:11:50.756Z,14.87
2018-12-01T23:13:52.997Z,15.43
2018-12-01T23:15:55.253Z,14.38
2018-12-01T23:17:57.655Z,17.98
2018-12-01T23:19:59.943Z,18.07
2018-12-01T23:22:02.637Z,17.42
2018-12-01T23:24:05.131Z,16.30
2018-12-01T23:26:08.768Z,16.27
2018-12-01T23:28:11.447Z,14.90
2018-12-01T23:30:16.894Z,15.48
2018-12-01T23:32:19.135Z,17.98
2018-12-01T23:34:21.864Z,12.95
2018-12-01T23:36:24.897Z,17.05
2018-12-01T23:38:27.164Z,21.62
2018-12-01T23:40:29.727Z,18.92
2018-12-01T23:42:31.972Z,18.50
2018-12-01T23:44:34.370Z,17.23
2018-12-01T23:46:36.739Z,15.20
2018-12-01T23:48:39.024Z,21.12
2018-12-01T23:50:43.233Z,15.15
2018-12-01T23:52:46.055Z,17.05
2018-12-01T23:54:48.284Z,26.07
2018-12-01T23:56:50.624Z,18.02
2018-12-01T23:58:52.848Z,18.05
